createdAt,value
2018-09-25T00:01:12.418Z,9.10
2018-09-25T00:03:45.262Z,9.20
2018-09-25T00:06:18.128Z,9.20
2018-09-25T00:08:50.809Z,9.20
2018-09-25T00:11:23.714Z,9.00
2018-09-25T00:13:56.375Z,9.10
2018-09-25T00:16:29.223Z,9.10
2018-09-25T00:19:02.080Z,9.00
2018-09-25T00:21:34.878Z,9.00
2018-09-25T00:24:07.749Z,8.90
2018-09-25T00:26:40.641Z,9.00
2018-09-25T00:29:13.417Z,9.00
2018-09-25T00:31:46.173Z,8.90
2018-09-25T00:34:18.957Z,8.80
2018-09-25T00:36:51.737Z,8.70
2018-09-25T00:39:24.556Z,8.70
2018-09-25T00:41:57.353Z,8.70
2018-09-25T00:44:30.020Z,8.70
2018-09-25T00:47:02.738Z,8.60
2018-09-25T00:49:35.374Z,8.70
2018-09-25T00:52:08.316Z,8.60
2018-09-25T00:54:41.159Z,8.70
2018-09-25T00:57:14.042Z,8.60
2018-09-25T00:59:47.427Z,8.50
2018-09-25T01:02:20.291Z,8.50
2018-09-25T01:04:53.195Z,5.70
2018-09-25T01:07:25.934Z,8.50
2018-09-25T01:09:58.833Z,8.60
2018-09-25T01:12:31.557Z,8.50
2018-09-25T01:15:04.354Z,8.40
2018-09-25T01:17:37.297Z,8.40
2018-09-25T01:20:10.102Z,8.50
2018-09-25T01:22:42.866Z,8.70
2018-09-25T01:25:15.778Z,8.50
2018-09-25T01:27:48.494Z,8.60
2018-09-25T01:30:21.077Z,8.40
2018-09-25T01:32:53.742Z,8.30
2018-09-25T01:35:26.394Z,8.40
2018-09-25T01:37:59.334Z,8.20
2018-09-25T01:40:31.980Z,8.10
2018-09-25T01:43:04.830Z,8.10
2018-09-25T01:45:37.676Z,8.10
2018-09-25T01:48:10.378Z,8.20
2018-09-25T01:50:42.984Z,8.00
2018-09-25T01:53:15.830Z,8.10
2018-09-25T01:55:48.485Z,8.30
2018-09-25T01:58:21.146Z,8.30
2018-09-25T02:00:54.298Z,8.10
2018-09-25T02:03:26.880Z,8.10
2018-09-25T02:05:59.593Z,8.00
2018-09-25T02:08:32.486Z,7.90
2018-09-25T02:11:05.231Z,8.20
2018-09-25T02:13:37.858Z,7.90
2018-09-25T02:16:11.031Z,7.30
2018-09-25T02:18:43.634Z,7.80
2018-09-25T02:21:17.134Z,7.90
2018-09-25T02:23:49.323Z,7.80
2018-09-25T02:26:22.027Z,7.70
2018-09-25T02:28:54.644Z,7.90
2018-09-25T02:31:27.533Z,7.80
2018-09-25T02:34:00.409Z,7.80
2018-09-25T02:36:33.254Z,7.90
2018-09-25T02:39:06.119Z,7.90
2018-09-25T02:41:38.995Z,8.00
2018-09-25T02:44:11.906Z,7.90
2018-09-25T02:46:44.577Z,7.90
2018-09-25T02:49:17.196Z,7.90
2018-09-25T02:51:50.045Z,7.80
2018-09-25T02:54:22.697Z,7.70
2018-09-25T02:56:55.585Z,7.90
2018-09-25T02:59:28.407Z,7.60
2018-09-25T03:02:01.980Z,7.80
2018-09-25T03:04:34.833Z,7.80
2018-09-25T03:07:07.471Z,7.80
2018-09-25T03:09:40.174Z,7.70
2018-09-25T03:12:13.079Z,7.70
2018-09-25T03:14:45.700Z,7.60
2018-09-25T03:17:18.366Z,7.60
2018-09-25T03:19:51.090Z,7.50
2018-09-25T03:22:23.980Z,7.60
2018-09-25T03:24:56.826Z,7.60
2018-09-25T03:27:29.543Z,7.60
2018-09-25T03:30:02.443Z,7.40
2018-09-25T03:32:35.008Z,6.70
2018-09-25T03:35:07.878Z,7.30
2018-09-25T03:37:40.754Z,7.40
2018-09-25T03:40:13.641Z,7.40
2018-09-25T03:42:46.462Z,7.40
2018-09-25T03:45:19.325Z,7.50
2018-09-25T03:47:52.170Z,7.50
2018-09-25T03:50:25.095Z,7.50
2018-09-25T03:52:58.031Z,7.50
2018-09-25T03:55:30.682Z,7.40
2018-09-25T03:58:03.307Z,7.60
2018-09-25T04:00:36.180Z,7.20
2018-09-25T04:03:09.560Z,7.10
2018-09-25T04:05:42.419Z,7.10
2018-09-25T04:08:15.237Z,7.00
2018-09-25T04:10:47.880Z,7.30
2018-09-25T04:13:20.694Z,7.30
2018-09-25T04:15:53.327Z,7.20
2018-09-25T04:18:25.950Z,7.30
2018-09-25T04:20:58.766Z,7.40
2018-09-25T04:23:31.603Z,7.30
2018-09-25T04:26:04.457Z,7.10
2018-09-25T04:28:37.308Z,7.20
2018-09-25T04:31:10.166Z,7.20
2018-09-25T04:33:42.975Z,5.50
2018-09-25T04:36:15.867Z,7.30
2018-09-25T04:38:48.666Z,7.50
2018-09-25T04:41:21.330Z,7.10
2018-09-25T04:43:54.214Z,7.10
2018-09-25T04:46:26.900Z,7.10
2018-09-25T04:48:59.750Z,7.20
2018-09-25T04:51:32.659Z,7.40
2018-09-25T04:54:05.473Z,5.20
2018-09-25T04:56:38.130Z,7.10
2018-09-25T04:59:11.001Z,7.10
2018-09-25T05:01:43.570Z,7.20
2018-09-25T05:04:16.701Z,7.20
2018-09-25T05:06:49.525Z,7.20
2018-09-25T05:09:22.233Z,7.10
2018-09-25T05:11:54.866Z,7.00
2018-09-25T05:14:27.683Z,7.10
2018-09-25T05:17:00.524Z,7.00
2018-09-25T05:19:33.248Z,7.00
2018-09-25T05:22:05.943Z,6.70
2018-09-25T05:24:38.631Z,6.80
2018-09-25T05:27:11.572Z,6.90
2018-09-25T05:29:44.451Z,6.90
2018-09-25T05:32:17.326Z,6.80
2018-09-25T05:34:49.982Z,6.90
2018-09-25T05:37:22.957Z,7.00
2018-09-25T05:39:55.791Z,7.00
2018-09-25T05:42:28.448Z,7.20
2018-09-25T05:45:01.287Z,7.10
2018-09-25T05:47:34.030Z,6.80
2018-09-25T05:50:06.725Z,6.80
2018-09-25T05:52:39.551Z,7.00
2018-09-25T05:55:12.335Z,7.00
2018-09-25T05:57:45.153Z,6.80
2018-09-25T06:00:17.800Z,6.60
2018-09-25T06:02:50.507Z,6.80
2018-09-25T06:05:23.422Z,6.80
2018-09-25T06:07:56.223Z,6.80
2018-09-25T06:10:28.957Z,6.80
2018-09-25T06:13:01.825Z,6.80
2018-09-25T06:15:34.433Z,7.00
2018-09-25T06:18:07.168Z,7.10
2018-09-25T06:20:39.770Z,7.10
2018-09-25T06:23:12.602Z,7.10
2018-09-25T06:25:45.502Z,7.00
2018-09-25T06:28:18.323Z,7.20
2018-09-25T06:30:51.160Z,7.20
2018-09-25T06:33:23.981Z,7.40
2018-09-25T06:35:56.843Z,7.50
2018-09-25T06:38:29.514Z,7.50
2018-09-25T06:41:02.429Z,6.30
2018-09-25T06:43:35.199Z,7.60
2018-09-25T06:46:08.129Z,7.90
2018-09-25T06:48:40.979Z,8.10
2018-09-25T06:51:13.658Z,8.30
2018-09-25T06:53:46.480Z,8.50
2018-09-25T06:56:19.120Z,8.80
2018-09-25T06:58:51.965Z,9.00
2018-09-25T07:01:24.834Z,9.20
2018-09-25T07:03:57.543Z,9.40
2018-09-25T07:06:30.930Z,9.50
2018-09-25T07:09:03.889Z,9.70
2018-09-25T07:11:36.610Z,9.90
2018-09-25T07:14:09.289Z,10.10
2018-09-25T07:16:41.958Z,10.20
2018-09-25T07:19:14.651Z,10.30
2018-09-25T07:21:47.538Z,10.30
2018-09-25T07:24:20.126Z,10.50
2018-09-25T07:26:52.779Z,10.50
2018-09-25T07:29:25.626Z,10.60
2018-09-25T07:31:58.238Z,10.70
2018-09-25T07:34:30.943Z,10.90
2018-09-25T07:37:03.765Z,10.80
2018-09-25T07:39:36.447Z,10.90
2018-09-25T07:42:09.306Z,10.20
2018-09-25T07:44:41.975Z,11.10
2018-09-25T07:47:14.612Z,11.30
2018-09-25T07:49:47.351Z,11.30
2018-09-25T07:52:20.018Z,11.40
2018-09-25T07:54:52.859Z,11.60
2018-09-25T07:57:25.957Z,11.60
2018-09-25T07:59:58.847Z,11.80
2018-09-25T08:02:31.557Z,11.70
2018-09-25T08:05:04.591Z,11.70
2018-09-25T08:07:37.843Z,12.00
2018-09-25T08:10:10.475Z,12.30
2018-09-25T08:12:43.140Z,12.50
2018-09-25T08:15:16.795Z,12.60
2018-09-25T08:17:50.342Z,12.80
2018-09-25T08:20:23.214Z,13.00
2018-09-25T08:22:55.925Z,12.70
2018-09-25T08:25:32.767Z,13.00
2018-09-25T08:28:05.448Z,13.30
2018-09-25T08:30:38.062Z,13.20
2018-09-25T08:33:10.917Z,13.50
2018-09-25T08:35:43.806Z,13.60
2018-09-25T08:38:16.494Z,13.60
2018-09-25T08:40:49.327Z,13.90
2018-09-25T08:43:21.902Z,13.80
2018-09-25T08:45:54.546Z,13.90
2018-09-25T08:48:27.213Z,13.90
2018-09-25T08:50:59.811Z,14.30
2018-09-25T08:53:32.628Z,14.60
2018-09-25T08:56:05.397Z,14.50
2018-09-25T08:58:38.223Z,14.80
2018-09-25T09:01:11.263Z,15.00
2018-09-25T09:03:43.895Z,15.20
2018-09-25T09:06:16.554Z,15.10
2018-09-25T09:08:49.649Z,16.10
2018-09-25T09:11:22.434Z,19.30
2018-09-25T09:13:55.220Z,23.30
2018-09-25T09:16:30.165Z,23.40
2018-09-25T09:19:03.019Z,23.60
2018-09-25T09:21:35.865Z,25.30
2018-09-25T09:24:08.798Z,25.30
2018-09-25T09:26:41.459Z,26.10
2018-09-25T09:29:14.078Z,26.10
2018-09-25T09:31:46.759Z,26.30
2018-09-25T09:34:19.362Z,26.50
2018-09-25T09:36:52.095Z,22.70
2018-09-25T09:39:24.901Z,25.40
2018-09-25T09:41:58.049Z,26.10
2018-09-25T09:44:30.718Z,25.50
2018-09-25T09:47:03.682Z,25.70
2018-09-25T09:49:36.545Z,25.70
2018-09-25T09:52:09.382Z,26.10
2018-09-25T09:54:42.031Z,25.00
2018-09-25T09:57:14.933Z,24.90
2018-09-25T09:59:47.716Z,19.90
2018-09-25T10:02:20.599Z,23.10
2018-09-25T10:04:53.446Z,23.00
2018-09-25T10:07:26.362Z,21.70
2018-09-25T10:09:59.693Z,21.20
2018-09-25T10:12:32.528Z,20.30
2018-09-25T10:15:04.998Z,20.80
2018-09-25T10:17:37.922Z,20.80
2018-09-25T10:20:10.764Z,20.60
2018-09-25T10:22:43.526Z,20.90
2018-09-25T10:25:16.168Z,21.50
2018-09-25T10:27:48.869Z,21.30
2018-09-25T10:30:21.465Z,20.50
2018-09-25T10:32:54.180Z,20.90
2018-09-25T10:35:26.746Z,21.30
2018-09-25T10:37:59.349Z,20.80
2018-09-25T10:40:32.029Z,21.20
2018-09-25T10:43:04.928Z,21.40
2018-09-25T10:45:37.747Z,20.90
2018-09-25T10:48:10.486Z,20.40
2018-09-25T10:50:43.101Z,20.10
2018-09-25T10:53:15.941Z,20.70
2018-09-25T10:55:48.897Z,21.10
2018-09-25T10:58:21.579Z,21.60
2018-09-25T11:00:54.118Z,20.50
2018-09-25T11:03:26.936Z,20.40
2018-09-25T11:05:59.697Z,21.00
2018-09-25T11:08:32.285Z,20.90
2018-09-25T11:11:05.249Z,21.40
2018-09-25T11:13:38.101Z,21.40
2018-09-25T11:16:11.013Z,21.40
2018-09-25T11:18:43.875Z,21.30
2018-09-25T11:21:16.532Z,21.60
2018-09-25T11:23:49.447Z,21.50
2018-09-25T11:26:22.169Z,20.60
2018-09-25T11:28:55.047Z,20.90
2018-09-25T11:31:28.009Z,20.70
2018-09-25T11:34:00.924Z,20.40
2018-09-25T11:36:33.807Z,20.20
2018-09-25T11:39:06.662Z,19.40
2018-09-25T11:41:39.491Z,21.10
2018-09-25T11:44:12.406Z,21.10
2018-09-25T11:46:45.317Z,21.30
2018-09-25T11:49:17.922Z,21.50
2018-09-25T11:51:50.871Z,21.30
2018-09-25T11:54:23.750Z,20.80
2018-09-25T11:56:56.458Z,20.70
2018-09-25T11:59:29.069Z,19.90
2018-09-25T12:02:01.693Z,20.40
2018-09-25T12:04:34.542Z,20.60
2018-09-25T12:07:07.307Z,16.90
2018-09-25T12:09:40.136Z,20.80
2018-09-25T12:12:13.340Z,20.80
2018-09-25T12:14:46.319Z,20.50
2018-09-25T12:17:19.028Z,20.70
2018-09-25T12:19:51.949Z,20.70
2018-09-25T12:22:24.452Z,20.30
2018-09-25T12:24:57.370Z,20.20
2018-09-25T12:27:30.237Z,19.70
2018-09-25T12:30:02.886Z,20.20
2018-09-25T12:32:35.550Z,19.70
2018-09-25T12:35:08.359Z,19.50
2018-09-25T12:37:41.146Z,19.70
2018-09-25T12:40:13.840Z,20.00
2018-09-25T12:42:46.711Z,19.40
2018-09-25T12:45:19.390Z,19.80
2018-09-25T12:47:52.280Z,20.10
2018-09-25T12:50:25.135Z,20.00
2018-09-25T12:52:57.945Z,20.00
2018-09-25T12:55:30.534Z,19.50
2018-09-25T12:58:03.142Z,19.40
2018-09-25T13:00:35.977Z,19.30
2018-09-25T13:03:08.709Z,19.40
2018-09-25T13:05:41.341Z,19.60
2018-09-25T13:08:13.997Z,19.10
2018-09-25T13:10:46.623Z,19.50
2018-09-25T13:13:19.413Z,19.30
2018-09-25T13:15:52.071Z,18.80
2018-09-25T13:18:24.782Z,18.90
2018-09-25T13:20:57.684Z,19.30
2018-09-25T13:23:30.240Z,19.60
2018-09-25T13:26:03.158Z,19.60
2018-09-25T13:28:36.031Z,19.10
2018-09-25T13:31:08.986Z,19.20
2018-09-25T13:33:41.799Z,18.70
2018-09-25T13:36:14.431Z,15.10
2018-09-25T13:38:47.330Z,19.20
2018-09-25T13:41:20.181Z,19.10
2018-09-25T13:43:52.795Z,18.60
2018-09-25T13:46:25.478Z,18.10
2018-09-25T13:48:58.128Z,18.70
2018-09-25T13:51:31.853Z,18.90
2018-09-25T13:54:04.510Z,18.50
2018-09-25T13:56:37.188Z,18.10
2018-09-25T13:59:09.811Z,18.20
2018-09-25T14:01:42.582Z,17.70
2018-09-25T14:04:15.375Z,17.80
2018-09-25T14:06:48.274Z,17.80
2018-09-25T14:09:21.142Z,17.90
2018-09-25T14:11:53.962Z,18.00
2018-09-25T14:14:27.178Z,18.20
2018-09-25T14:16:59.911Z,17.90
2018-09-25T14:19:32.765Z,17.50
2018-09-25T14:22:05.708Z,17.70
2018-09-25T14:24:38.549Z,17.70
2018-09-25T14:27:11.346Z,17.60
2018-09-25T14:29:43.952Z,17.70
2018-09-25T14:32:16.583Z,17.70
2018-09-25T14:34:49.306Z,17.70
2018-09-25T14:37:22.123Z,17.60
2018-09-25T14:39:54.768Z,17.60
2018-09-25T14:42:27.630Z,17.50
2018-09-25T14:45:00.306Z,17.40
2018-09-25T14:47:32.932Z,17.30
2018-09-25T14:50:05.725Z,17.20
2018-09-25T14:52:38.461Z,17.00
2018-09-25T14:55:11.254Z,16.30
2018-09-25T14:57:44.153Z,17.10
2018-09-25T15:00:16.950Z,17.10
2018-09-25T15:02:49.863Z,17.20
2018-09-25T15:05:22.702Z,17.20
2018-09-25T15:07:55.567Z,17.20
2018-09-25T15:10:28.287Z,17.00
2018-09-25T15:13:01.112Z,16.90
2018-09-25T15:15:34.170Z,17.20
2018-09-25T15:18:06.992Z,17.00
2018-09-25T15:20:39.758Z,16.90
2018-09-25T15:23:12.580Z,16.90
2018-09-25T15:25:45.277Z,16.70
2018-09-25T15:28:17.918Z,16.50
2018-09-25T15:30:50.773Z,16.60
2018-09-25T15:33:23.604Z,16.60
2018-09-25T15:35:56.368Z,17.00
2018-09-25T15:38:29.105Z,16.60
2018-09-25T15:41:01.818Z,16.40
2018-09-25T15:43:34.530Z,16.30
2018-09-25T15:46:07.381Z,16.40
2018-09-25T15:48:40.138Z,16.40
2018-09-25T15:51:12.843Z,16.50
2018-09-25T15:53:45.438Z,16.30
2018-09-25T15:56:18.266Z,16.10
2018-09-25T15:58:51.058Z,16.10
2018-09-25T16:01:23.837Z,16.00
2018-09-25T16:03:56.853Z,16.10
2018-09-25T16:06:29.685Z,16.00
2018-09-25T16:09:02.586Z,16.00
2018-09-25T16:11:35.404Z,16.20
2018-09-25T16:14:08.170Z,16.20
2018-09-25T16:16:41.501Z,16.90
2018-09-25T16:19:14.166Z,16.90
2018-09-25T16:21:47.056Z,16.80
2018-09-25T16:24:19.849Z,16.70
2018-09-25T16:26:52.720Z,16.80
2018-09-25T16:29:25.452Z,16.50
2018-09-25T16:31:58.242Z,16.40
2018-09-25T16:34:31.129Z,13.60
2018-09-25T16:37:04.011Z,16.20
2018-09-25T16:39:36.668Z,15.90
2018-09-25T16:42:09.496Z,15.80
2018-09-25T16:44:42.127Z,15.70
2018-09-25T16:47:14.949Z,15.80
2018-09-25T16:49:47.826Z,17.10
2018-09-25T16:52:20.639Z,15.50
2018-09-25T16:54:53.378Z,15.30
2018-09-25T16:57:26.232Z,15.20
2018-09-25T16:59:59.101Z,15.10
2018-09-25T17:02:32.019Z,15.00
2018-09-25T17:05:04.630Z,15.10
2018-09-25T17:07:37.325Z,15.10
2018-09-25T17:10:10.208Z,14.90
2018-09-25T17:12:42.806Z,14.90
2018-09-25T17:15:15.668Z,15.00
2018-09-25T17:17:48.962Z,15.10
2018-09-25T17:20:21.628Z,14.90
2018-09-25T17:22:54.546Z,14.60
2018-09-25T17:25:27.421Z,14.50
2018-09-25T17:28:00.555Z,15.00
2018-09-25T17:30:33.265Z,14.40
2018-09-25T17:33:06.077Z,14.40
2018-09-25T17:35:38.835Z,14.30
2018-09-25T17:38:11.645Z,14.20
2018-09-25T17:40:44.247Z,14.00
2018-09-25T17:43:17.165Z,14.20
2018-09-25T17:45:49.901Z,14.00
2018-09-25T17:48:22.551Z,12.90
2018-09-25T17:50:55.145Z,13.90
2018-09-25T17:53:27.738Z,14.00
2018-09-25T17:56:00.324Z,14.00
2018-09-25T17:58:32.977Z,13.80
2018-09-25T18:01:05.753Z,13.70
2018-09-25T18:03:38.350Z,12.60
2018-09-25T18:06:11.189Z,13.70
2018-09-25T18:08:43.823Z,13.60
2018-09-25T18:11:16.777Z,13.50
2018-09-25T18:13:49.677Z,13.50
2018-09-25T18:16:22.571Z,13.50
2018-09-25T18:18:55.967Z,13.50
2018-09-25T18:21:28.641Z,13.40
2018-09-25T18:24:01.167Z,13.50
2018-09-25T18:26:34.000Z,13.50
2018-09-25T18:29:06.646Z,13.50
2018-09-25T18:31:39.382Z,13.60
2018-09-25T18:34:11.858Z,13.30
2018-09-25T18:36:44.797Z,13.30
2018-09-25T18:39:17.577Z,13.30
2018-09-25T18:41:50.484Z,13.30
2018-09-25T18:44:23.127Z,13.30
2018-09-25T18:46:55.975Z,13.10
2018-09-25T18:49:28.845Z,12.90
2018-09-25T18:52:01.475Z,12.70
2018-09-25T18:54:34.075Z,12.80
2018-09-25T18:57:06.916Z,12.70
2018-09-25T18:59:39.810Z,12.90
2018-09-25T19:02:12.684Z,12.80
2018-09-25T19:04:45.500Z,12.60
2018-09-25T19:07:18.438Z,12.60
2018-09-25T19:09:51.210Z,12.60
2018-09-25T19:12:24.058Z,12.60
2018-09-25T19:14:56.695Z,12.80
2018-09-25T19:17:29.522Z,12.70
2018-09-25T19:20:02.362Z,12.60
2018-09-25T19:22:35.279Z,12.60
2018-09-25T19:25:08.207Z,12.60
2018-09-25T19:27:41.110Z,12.50
2018-09-25T19:30:13.870Z,12.30
2018-09-25T19:32:46.736Z,12.20
2018-09-25T19:35:19.468Z,12.20
2018-09-25T19:37:52.338Z,12.10
2018-09-25T19:40:25.573Z,12.20
2018-09-25T19:42:58.448Z,12.10
2018-09-25T19:45:31.103Z,12.20
2018-09-25T19:48:03.819Z,12.30
2018-09-25T19:50:36.695Z,12.20
2018-09-25T19:53:09.565Z,12.20
2018-09-25T19:55:42.275Z,12.20
2018-09-25T19:58:15.154Z,12.10
2018-09-25T20:00:48.086Z,12.10
2018-09-25T20:03:20.994Z,12.10
2018-09-25T20:05:53.597Z,12.20
2018-09-25T20:08:26.461Z,12.20
2018-09-25T20:10:59.302Z,12.20
2018-09-25T20:13:32.179Z,12.00
2018-09-25T20:16:05.062Z,12.00
2018-09-25T20:18:37.983Z,11.80
2018-09-25T20:21:11.631Z,11.60
2018-09-25T20:23:44.438Z,11.60
2018-09-25T20:26:17.131Z,11.40
2018-09-25T20:28:49.830Z,11.60
2018-09-25T20:31:22.590Z,11.60
2018-09-25T20:33:55.401Z,11.40
2018-09-25T20:36:28.269Z,11.30
2018-09-25T20:39:01.129Z,11.30
2018-09-25T20:41:34.174Z,11.40
2018-09-25T20:44:07.000Z,11.40
2018-09-25T20:46:39.857Z,11.30
2018-09-25T20:49:12.805Z,11.30
2018-09-25T20:51:45.384Z,11.00
2018-09-25T20:54:18.139Z,10.90
2018-09-25T20:56:50.755Z,11.00
2018-09-25T20:59:23.459Z,10.80
2018-09-25T21:01:56.377Z,11.00
2018-09-25T21:04:29.240Z,11.00
2018-09-25T21:07:01.832Z,10.90
2018-09-25T21:09:35.462Z,10.90
2018-09-25T21:12:07.410Z,10.80
2018-09-25T21:14:40.062Z,10.80
2018-09-25T21:17:12.971Z,10.60
2018-09-25T21:19:46.456Z,10.60
2018-09-25T21:22:19.122Z,10.60
2018-09-25T21:24:52.078Z,10.40
2018-09-25T21:27:25.061Z,10.40
2018-09-25T21:29:57.583Z,10.40
2018-09-25T21:32:30.211Z,10.40
2018-09-25T21:35:03.013Z,10.50
2018-09-25T21:37:35.786Z,10.40
2018-09-25T21:40:08.691Z,10.40
2018-09-25T21:42:41.307Z,10.40
2018-09-25T21:45:14.173Z,10.40
2018-09-25T21:47:46.949Z,11.20
2018-09-25T21:50:19.870Z,10.40
2018-09-25T21:52:52.530Z,10.30
2018-09-25T21:55:25.426Z,10.30
2018-09-25T21:57:58.916Z,10.30
2018-09-25T22:00:31.886Z,10.20
2018-09-25T22:03:04.492Z,10.00
2018-09-25T22:05:37.741Z,10.10
2018-09-25T22:08:10.555Z,10.10
2018-09-25T22:10:43.456Z,10.10
2018-09-25T22:13:16.345Z,10.00
2018-09-25T22:15:49.061Z,10.00
2018-09-25T22:18:21.842Z,9.90
2018-09-25T22:20:54.434Z,10.00
2018-09-25T22:23:27.979Z,9.80
2018-09-25T22:26:00.662Z,9.70
2018-09-25T22:28:33.690Z,9.70
2018-09-25T22:31:06.537Z,9.60
2018-09-25T22:33:40.577Z,9.70
2018-09-25T22:36:13.496Z,9.60
2018-09-25T22:38:46.335Z,9.70
2018-09-25T22:41:18.988Z,9.60
2018-09-25T22:43:51.681Z,9.50
2018-09-25T22:46:24.568Z,9.40
2018-09-25T22:48:57.179Z,9.40
2018-09-25T22:51:29.810Z,9.30
2018-09-25T22:54:02.696Z,9.40
2018-09-25T22:56:35.553Z,9.30
2018-09-25T22:59:08.411Z,9.30
2018-09-25T23:01:41.265Z,9.40
2018-09-25T23:04:14.201Z,9.20
2018-09-25T23:06:46.849Z,9.10
2018-09-25T23:09:19.461Z,9.10
2018-09-25T23:11:52.183Z,9.00
2018-09-25T23:14:24.878Z,9.40
2018-09-25T23:16:57.526Z,9.00
2018-09-25T23:19:30.394Z,8.90
2018-09-25T23:22:03.044Z,8.70
2018-09-25T23:24:36.354Z,8.90
2018-09-25T23:27:08.997Z,8.90
2018-09-25T23:29:41.690Z,8.80
2018-09-25T23:32:14.419Z,8.80
2018-09-25T23:34:47.199Z,8.80
2018-09-25T23:37:20.142Z,8.70
2018-09-25T23:39:53.494Z,8.80
2018-09-25T23:42:25.493Z,9.00
2018-09-25T23:45:16.202Z,8.50
2018-09-25T23:47:48.073Z,8.50
2018-09-25T23:50:20.096Z,8.90
2018-09-25T23:53:00.051Z,10.30
2018-09-25T23:55:51.552Z,8.80
2018-09-25T23:58:44.078Z,8.70
